Résultats

Trail de Jouques - 5KM. Édition 2013.

5 Km
13/10/2013 à 00:00:00 - ()
38 arrivant(e)s.





Place▲ Temps Dossard Nom Prenom Categ #Categ Sexe #Sexe Club Vit Moy Diplôme Partager
1 00:24:13 527 DI-FUSCO THEO MIM 1 M 1 9.9
2 00:24:41 504 CANZANO MATHIEU BEM 1 M 2 9.9
3 00:24:48 502 BURNEL ROMAIN BEM 2 M 3 JOUQUES GENERATION TRAIL 9.9
4 00:24:53 501 BREUILLARD NICOLAS BEM 3 M 4 9.9
5 00:26:00 517 MALFANTI ACHILLE BEM 4 M 5 9.9
6 00:26:22 522 RAVIX CALLISTE POM 1 M 6 9.9
7 00:26:49 506 DECHELETTE LEO BEM 5 M 7 JOUQUES GENERATION TRAIL 9.9
8 00:26:55 533 BEAUFILS ANTONIN MIM 2 M 8 9.9
9 00:26:57 507 DEWAVRIN KILIAN MIM 3 M 9 9.9
10 00:26:59 526 TROUILLET LILIAN BEM 6 M 10 9.9
11 00:27:12 540 PRABEL VIOLETTE BEF 1 F 1 9.9
12 00:27:28 528 OLIVIER VICTOR POM 2 M 11 9.9
13 00:28:00 509 GANDOIN LEO POM 3 M 12 9.9
14 00:28:09 534 GUTENUNST HUGO POM 4 M 13 9.9
15 00:28:12 520 MARY LEO BEM 7 M 14 AIX ATHLE PROVENCE 9.9
16 00:28:21 538 MERLIN VALENTIN BEM 8 M 15 9.9
17 00:28:31 521 MIGNONNE PAUL POM 5 M 16 JOUQUES GENERATION TRAIL 9.9
18 00:28:46 510 GIANNONE HENRICK MIM 4 M 17 9.9
19 00:29:13 505 CHANET VICTOR BEM 9 M 18 9.9
20 00:29:16 536 BARRAUD BENJAMIN MIM 5 M 19 9.9
21 00:29:23 513 LEMAIRE JULIETTE BEF 2 F 2 9.9
22 00:29:51 537 MINASSIAN JEAN POM 6 M 20 9.9
23 00:30:19 529 OLIVIER BLAISE BEM 10 M 21 9.9
24 00:30:21 524 VIVIEN MAEL POM 7 M 22 9.9
25 00:30:23 511 GRIMAUD LAURA POF 1 F 3 9.9
26 00:30:36 539 PRABEL CHARLOTTE BEF 3 F 4 9.9
27 00:30:56 531 PERRIN SIMON POM 8 M 23 9.9
28 00:30:57 525 BOGGIO MATHIAS BEM 11 M 24 9.9
29 00:31:01 503 CANTONE LAURA MIF 1 F 5 JOUQUES GENERATION TRAIL 9.9
30 00:31:05 508 DEWAVRIN MAINA POF 2 F 6 9.9
31 00:31:31 514 LEMAIRE ROMAIN POM 9 M 25 9.9
32 00:32:25 535 DE-ROHDEN ANTONIE BEM 12 M 26 9.9
33 00:33:22 519 MARTELLOTTO BASTIEN MIM 6 M 27 JOUQUES GENERATION TRAIL 9.9
34 00:36:21 523 TROUILLET LOLA POF 3 F 7 JOUQUES GENERATION TRAIL 9.9
35 00:36:22 518 MARTELLOTTO ALICE BEF 4 F 8 9.9
36 00:36:27 530 MEISSON ELODIE BEF 5 F 9 9.9
37 00:37:48 512 LANDAIS ORIANE BEF 6 F 10 9.9
38 00:39:06 532 DARBOS EMILIE POF 4 F 11 9.9